createdAt,value
2022-11-05T00:00:42.183Z,89.41
2022-11-05T00:01:42.233Z,89.92
2022-11-05T00:02:42.164Z,89.92
2022-11-05T00:03:42.224Z,89.92
2022-11-05T00:04:42.182Z,90.12
2022-11-05T00:05:42.133Z,89.92
2022-11-05T00:06:42.121Z,90.53
2022-11-05T00:07:42.121Z,90.02
2022-11-05T00:08:42.099Z,89.92
2022-11-05T00:09:42.114Z,90.23
2022-11-05T00:10:42.076Z,90.02
2022-11-05T00:11:42.063Z,90.33
2022-11-05T00:12:42.055Z,90.88
2022-11-05T00:13:42.043Z,90.64
2022-11-05T00:14:42.043Z,90.23
2022-11-05T00:15:42.021Z,90.43
2022-11-05T00:16:42.011Z,90.64
2022-11-05T00:17:42.055Z,90.53
2022-11-05T00:18:41.992Z,90.64
2022-11-05T00:19:41.989Z,90.53
2022-11-05T00:20:41.986Z,90.47
2022-11-05T00:21:41.955Z,90.84
2022-11-05T00:22:41.949Z,90.37
2022-11-05T00:23:41.931Z,90.58
2022-11-05T00:24:41.948Z,90.68
2022-11-05T00:25:41.911Z,90.64
2022-11-05T00:26:41.904Z,90.99
2022-11-05T00:27:41.916Z,91.09
2022-11-05T00:28:41.892Z,90.58
2022-11-05T00:29:41.867Z,90.74
2022-11-05T00:30:41.864Z,91.05
2022-11-05T00:31:41.849Z,90.94
2022-11-05T00:32:41.836Z,90.88
2022-11-05T00:33:41.844Z,91.09
2022-11-05T00:34:41.817Z,90.58
2022-11-05T00:35:41.802Z,91.44
2022-11-05T00:36:41.834Z,91.44
2022-11-05T00:37:47.089Z,91.64
2022-11-05T00:38:42.790Z,91.74
2022-11-05T00:39:41.758Z,91.74
2022-11-05T00:40:41.824Z,91.54
2022-11-05T00:41:41.741Z,92.05
2022-11-05T00:42:41.727Z,91.95
2022-11-05T00:43:41.726Z,92.05
2022-11-05T00:44:41.708Z,92.36
2022-11-05T00:45:41.693Z,92.87
2022-11-05T00:46:41.685Z,92.56
2022-11-05T00:47:41.672Z,92.36
2022-11-05T00:48:41.672Z,92.46
2022-11-05T00:49:41.655Z,92.46
2022-11-05T00:50:41.646Z,93.38
2022-11-05T00:51:41.629Z,93.28
2022-11-05T00:52:41.634Z,93.38
2022-11-05T00:53:41.625Z,93.28
2022-11-05T00:54:41.597Z,93.28
2022-11-05T00:55:41.583Z,92.36
2022-11-05T00:56:41.577Z,92.46
2022-11-05T00:57:41.577Z,92.36
2022-11-05T00:58:41.564Z,92.46
2022-11-05T00:59:41.549Z,92.36
2022-11-05T01:00:41.530Z,92.56
2022-11-05T01:01:41.625Z,92.36
2022-11-05T01:02:41.674Z,92.62
2022-11-05T01:03:41.553Z,92.32
2022-11-05T01:04:41.486Z,92.42
2022-11-05T01:05:41.473Z,92.05
2022-11-05T01:06:41.463Z,92.11
2022-11-05T01:07:41.452Z,91.54
2022-11-05T01:08:41.471Z,92.05
2022-11-05T01:09:41.429Z,91.54
2022-11-05T01:10:41.452Z,91.95
2022-11-05T01:11:41.407Z,91.50
2022-11-05T01:12:41.398Z,91.70
2022-11-05T01:13:41.399Z,92.01
2022-11-05T01:14:41.375Z,91.60
2022-11-05T01:15:41.425Z,91.39
2022-11-05T01:16:41.365Z,91.60
2022-11-05T01:17:41.343Z,91.60
2022-11-05T01:18:41.346Z,91.54
2022-11-05T01:19:41.322Z,91.74
2022-11-05T01:20:41.310Z,91.64
2022-11-05T01:21:41.298Z,91.74
2022-11-05T01:22:41.303Z,91.85
2022-11-05T01:23:41.287Z,91.54
2022-11-05T01:24:41.282Z,91.95
2022-11-05T01:25:41.255Z,91.95
2022-11-05T01:26:41.243Z,91.64
2022-11-05T01:27:41.238Z,91.95
2022-11-05T01:28:41.357Z,91.85
2022-11-05T01:29:41.208Z,92.36
2022-11-05T01:30:41.220Z,92.46
2022-11-05T01:31:41.193Z,92.46
2022-11-05T01:32:41.186Z,91.85
2022-11-05T01:33:41.181Z,92.15
2022-11-05T01:34:41.157Z,92.05
2022-11-05T01:35:41.149Z,91.85
2022-11-05T01:36:41.137Z,91.85
2022-11-05T01:37:41.123Z,92.05
2022-11-05T01:38:41.124Z,92.05
2022-11-05T01:39:41.102Z,92.25
2022-11-05T01:40:41.113Z,92.15
2022-11-05T01:41:41.078Z,91.95
2022-11-05T01:42:41.071Z,92.15
2022-11-05T01:43:41.081Z,91.85
2022-11-05T01:44:41.054Z,92.15
2022-11-05T01:45:41.038Z,92.05
2022-11-05T01:46:41.033Z,91.64
2022-11-05T01:47:41.014Z,92.05
2022-11-05T01:48:41.023Z,91.64
2022-11-05T01:49:40.989Z,91.74
2022-11-05T01:50:40.984Z,91.64
2022-11-05T01:51:40.973Z,91.70
2022-11-05T01:52:40.965Z,91.54
2022-11-05T01:53:40.966Z,91.33
2022-11-05T01:54:40.938Z,91.33
2022-11-05T01:55:40.926Z,91.54
2022-11-05T01:56:40.929Z,91.44
2022-11-05T01:57:40.903Z,91.44
2022-11-05T01:58:40.908Z,91.54
2022-11-05T01:59:40.885Z,91.44
2022-11-05T02:00:40.884Z,91.64
2022-11-05T02:01:40.962Z,91.23
2022-11-05T02:02:41.030Z,91.54
2022-11-05T02:03:40.852Z,91.44
2022-11-05T02:04:40.831Z,91.33
2022-11-05T02:05:40.827Z,91.23
2022-11-05T02:06:40.811Z,91.13
2022-11-05T02:07:40.794Z,91.03
2022-11-05T02:08:40.838Z,90.72
2022-11-05T02:09:40.770Z,91.03
2022-11-05T02:10:40.830Z,90.41
2022-11-05T02:11:40.760Z,90.52
2022-11-05T02:12:40.793Z,90.72
2022-11-05T02:13:40.727Z,90.82
2022-11-05T02:14:40.725Z,90.62
2022-11-05T02:15:40.706Z,90.52
2022-11-05T02:16:40.715Z,90.92
2022-11-05T02:17:40.694Z,90.82
2022-11-05T02:18:40.672Z,90.52
2022-11-05T02:19:40.659Z,90.72
2022-11-05T02:20:40.654Z,90.41
2022-11-05T02:21:40.643Z,90.52
2022-11-05T02:22:40.628Z,90.62
2022-11-05T02:23:40.630Z,90.11
2022-11-05T02:24:40.606Z,90.92
2022-11-05T02:25:40.598Z,90.52
2022-11-05T02:26:40.584Z,90.52
2022-11-05T02:27:40.573Z,90.62
2022-11-05T02:28:40.596Z,90.41
2022-11-05T02:29:40.551Z,90.72
2022-11-05T02:30:40.549Z,90.11
2022-11-05T02:31:40.535Z,90.21
2022-11-05T02:32:40.543Z,90.00
2022-11-05T02:33:40.512Z,90.21
2022-11-05T02:34:40.494Z,90.11
2022-11-05T02:35:40.488Z,90.52
2022-11-05T02:36:40.480Z,90.31
2022-11-05T02:37:40.475Z,90.41
2022-11-05T02:38:40.450Z,90.31
2022-11-05T02:39:40.446Z,90.52
2022-11-05T02:40:40.429Z,90.62
2022-11-05T02:41:40.421Z,90.41
2022-11-05T02:42:40.417Z,90.25
2022-11-05T02:43:48.134Z,90.15
2022-11-05T02:44:40.386Z,90.36
2022-11-05T02:45:40.378Z,90.52
2022-11-05T02:46:40.362Z,90.52
2022-11-05T02:47:40.365Z,90.92
2022-11-05T02:48:40.341Z,90.52
2022-11-05T02:49:40.332Z,90.56
2022-11-05T02:50:40.320Z,90.56
2022-11-05T02:51:40.312Z,90.56
2022-11-05T02:52:40.311Z,90.62
2022-11-05T02:53:40.292Z,90.86
2022-11-05T02:54:40.277Z,90.56
2022-11-05T02:55:40.268Z,90.66
2022-11-05T02:56:40.261Z,90.66
2022-11-05T02:57:40.256Z,90.15
2022-11-05T02:58:40.235Z,90.66
2022-11-05T02:59:40.521Z,90.52
2022-11-05T03:00:40.215Z,90.00
2022-11-05T03:01:40.370Z,90.66
2022-11-05T03:02:40.352Z,90.11
2022-11-05T03:03:40.183Z,90.66
2022-11-05T03:04:40.169Z,90.31
2022-11-05T03:05:40.160Z,89.84
2022-11-05T03:06:40.146Z,89.94
2022-11-05T03:07:40.138Z,90.36
2022-11-05T03:08:40.138Z,90.36
2022-11-05T03:09:40.116Z,90.15
2022-11-05T03:10:40.104Z,90.15
2022-11-05T03:11:40.100Z,90.56
2022-11-05T03:12:40.083Z,89.94
2022-11-05T03:13:40.081Z,90.25
2022-11-05T03:14:40.060Z,90.36
2022-11-05T03:15:40.069Z,90.25
2022-11-05T03:16:40.039Z,90.25
2022-11-05T03:17:40.045Z,90.36
2022-11-05T03:18:40.021Z,90.45
2022-11-05T03:19:40.012Z,90.36
2022-11-05T03:20:40.001Z,90.56
2022-11-05T03:21:39.985Z,89.74
2022-11-05T03:22:39.982Z,89.64
2022-11-05T03:23:39.963Z,90.15
2022-11-05T03:24:39.952Z,89.94
2022-11-05T03:25:39.958Z,89.74
2022-11-05T03:26:39.929Z,89.78
2022-11-05T03:27:39.934Z,90.09
2022-11-05T03:28:39.908Z,90.09
2022-11-05T03:29:39.898Z,90.19
2022-11-05T03:30:39.890Z,90.30
2022-11-05T03:31:39.901Z,90.50
2022-11-05T03:32:39.873Z,90.70
2022-11-05T03:33:39.855Z,90.19
2022-11-05T03:34:39.846Z,90.70
2022-11-05T03:35:39.834Z,90.19
2022-11-05T03:36:39.868Z,90.70
2022-11-05T03:37:39.828Z,90.19
2022-11-05T03:38:39.805Z,90.19
2022-11-05T03:39:39.791Z,90.60
2022-11-05T03:40:39.780Z,90.39
2022-11-05T03:41:39.769Z,90.30
2022-11-05T03:42:39.770Z,89.89
2022-11-05T03:43:39.749Z,90.50
2022-11-05T03:44:39.735Z,90.30
2022-11-05T03:45:39.727Z,89.98
2022-11-05T03:46:39.714Z,90.19
2022-11-05T03:47:39.820Z,90.19
2022-11-05T03:48:39.783Z,90.19
2022-11-05T03:49:39.689Z,90.19
2022-11-05T03:50:41.416Z,90.15
2022-11-05T03:51:39.665Z,90.19
2022-11-05T03:52:39.663Z,90.36
2022-11-05T03:53:39.641Z,90.56
2022-11-05T03:54:39.630Z,89.84
2022-11-05T03:55:39.622Z,90.25
2022-11-05T03:56:39.607Z,89.84
2022-11-05T03:57:39.611Z,89.43
2022-11-05T03:58:39.585Z,89.12
2022-11-05T03:59:39.576Z,89.17
2022-11-05T04:00:39.564Z,89.43
2022-11-05T04:01:39.695Z,89.68
2022-11-05T04:02:39.728Z,89.47
2022-11-05T04:03:39.552Z,89.47
2022-11-05T04:04:39.520Z,89.47
2022-11-05T04:05:39.512Z,89.84
2022-11-05T04:06:39.498Z,89.23
2022-11-05T04:07:39.504Z,89.27
2022-11-05T04:08:39.477Z,89.78
2022-11-05T04:09:39.477Z,89.17
2022-11-05T04:10:39.454Z,89.17
2022-11-05T04:11:39.445Z,89.47
2022-11-05T04:12:39.446Z,89.78
2022-11-05T04:13:39.426Z,89.27
2022-11-05T04:14:39.413Z,89.68
2022-11-05T04:15:39.416Z,89.43
2022-11-05T04:16:39.390Z,89.33
2022-11-05T04:17:39.394Z,89.17
2022-11-05T04:18:39.368Z,89.37
2022-11-05T04:19:39.375Z,88.96
2022-11-05T04:20:39.347Z,88.96
2022-11-05T04:21:39.337Z,89.17
2022-11-05T04:22:39.336Z,89.17
2022-11-05T04:23:39.315Z,89.17
2022-11-05T04:24:39.304Z,89.06
2022-11-05T04:25:39.296Z,89.06
2022-11-05T04:26:39.282Z,88.76
2022-11-05T04:27:39.283Z,88.86
2022-11-05T04:28:39.266Z,88.96
2022-11-05T04:29:39.250Z,88.96
2022-11-05T04:30:39.237Z,89.06
2022-11-05T04:31:39.244Z,88.96
2022-11-05T04:32:39.216Z,89.17
2022-11-05T04:33:39.219Z,89.17
2022-11-05T04:34:39.196Z,89.62
2022-11-05T04:35:39.206Z,89.47
2022-11-05T04:36:39.178Z,89.37
2022-11-05T04:37:39.164Z,89.42
2022-11-05T04:38:39.160Z,89.21
2022-11-05T04:39:39.142Z,89.27
2022-11-05T04:40:39.128Z,88.96
2022-11-05T04:41:39.127Z,89.11
2022-11-05T04:42:39.106Z,89.31
2022-11-05T04:43:39.111Z,89.62
2022-11-05T04:44:39.087Z,89.51
2022-11-05T04:45:39.079Z,89.31
2022-11-05T04:46:39.069Z,89.31
2022-11-05T04:47:39.056Z,89.21
2022-11-05T04:48:39.051Z,89.11
2022-11-05T04:49:39.034Z,89.42
2022-11-05T04:50:39.020Z,89.51
2022-11-05T04:51:39.125Z,89.21
2022-11-05T04:52:39.005Z,89.42
2022-11-05T04:53:39.002Z,89.42
2022-11-05T04:54:38.978Z,89.31
2022-11-05T04:55:38.970Z,89.31
2022-11-05T04:56:38.958Z,89.42
2022-11-05T04:57:38.949Z,89.21
2022-11-05T04:58:38.944Z,89.31
2022-11-05T04:59:38.929Z,89.21
2022-11-05T05:00:38.985Z,89.31
2022-11-05T05:01:39.040Z,89.31
2022-11-05T05:02:38.891Z,88.94
2022-11-05T05:03:38.892Z,89.15
2022-11-05T05:04:38.872Z,89.21
2022-11-05T05:05:38.860Z,89.45
2022-11-05T05:06:38.850Z,89.51
2022-11-05T05:07:38.854Z,89.45
2022-11-05T05:08:38.842Z,89.72
2022-11-05T05:09:38.818Z,89.92
2022-11-05T05:10:38.812Z,89.21
2022-11-05T05:11:38.799Z,89.51
2022-11-05T05:12:38.787Z,89.56
2022-11-05T05:13:38.792Z,89.56
2022-11-05T05:14:38.776Z,89.56
2022-11-05T05:15:38.756Z,89.66
2022-11-05T05:16:38.743Z,89.56
2022-11-05T05:17:38.733Z,89.66
2022-11-05T05:18:43.535Z,89.45
2022-11-05T05:19:39.712Z,89.66
2022-11-05T05:20:38.699Z,89.76
2022-11-05T05:21:38.698Z,89.66
2022-11-05T05:22:38.679Z,89.56
2022-11-05T05:23:38.694Z,89.56
2022-11-05T05:24:38.659Z,89.45
2022-11-05T05:25:38.650Z,89.76
2022-11-05T05:26:38.637Z,89.66
2022-11-05T05:27:38.630Z,89.56
2022-11-05T05:28:38.625Z,89.42
2022-11-05T05:29:38.608Z,89.56
2022-11-05T05:30:38.596Z,89.62
2022-11-05T05:31:38.583Z,89.21
2022-11-05T05:32:38.572Z,89.51
2022-11-05T05:33:38.577Z,89.51
2022-11-05T05:34:38.549Z,89.62
2022-11-05T05:35:38.543Z,89.25
2022-11-05T05:36:38.531Z,88.74
2022-11-05T05:37:38.522Z,88.80
2022-11-05T05:38:38.520Z,88.84
2022-11-05T05:39:38.517Z,89.11
2022-11-05T05:40:38.489Z,88.84
2022-11-05T05:41:38.479Z,88.94
2022-11-05T05:42:42.839Z,89.15
2022-11-05T05:43:38.474Z,88.64
2022-11-05T05:44:38.450Z,89.15
2022-11-05T05:45:38.434Z,88.84
2022-11-05T05:46:38.422Z,89.04
2022-11-05T05:47:38.413Z,88.94
2022-11-05T05:48:38.413Z,89.04
2022-11-05T05:49:38.392Z,88.74
2022-11-05T05:50:38.382Z,88.98
2022-11-05T05:51:38.386Z,88.47
2022-11-05T05:52:38.366Z,88.78
2022-11-05T05:53:38.366Z,89.04
2022-11-05T05:54:42.487Z,89.19
2022-11-05T05:55:38.345Z,89.39
2022-11-05T05:56:38.316Z,89.70
2022-11-05T05:57:38.309Z,89.39
2022-11-05T05:58:38.323Z,89.29
2022-11-05T05:59:38.284Z,89.81
2022-11-05T06:00:38.273Z,89.81
2022-11-05T06:01:38.423Z,89.25
2022-11-05T06:02:38.383Z,89.29
2022-11-05T06:03:38.252Z,89.39
2022-11-05T06:04:38.232Z,89.29
2022-11-05T06:05:38.221Z,89.50
2022-11-05T06:06:38.211Z,89.50
2022-11-05T06:07:38.212Z,89.39
2022-11-05T06:08:38.197Z,89.19
2022-11-05T06:09:38.181Z,88.78
2022-11-05T06:10:38.306Z,89.29
2022-11-05T06:11:38.184Z,89.39
2022-11-05T06:12:38.156Z,89.09
2022-11-05T06:13:38.149Z,89.09
2022-11-05T06:14:38.123Z,89.09
2022-11-05T06:15:38.116Z,88.78
2022-11-05T06:16:38.111Z,88.98
2022-11-05T06:17:38.094Z,88.88
2022-11-05T06:18:38.106Z,89.04
2022-11-05T06:19:38.073Z,88.78
2022-11-05T06:20:38.062Z,88.78
2022-11-05T06:21:38.057Z,89.04
2022-11-05T06:22:38.058Z,88.88
2022-11-05T06:23:38.030Z,89.15
2022-11-05T06:24:38.024Z,89.04
2022-11-05T06:25:41.226Z,89.36
2022-11-05T06:26:37.997Z,89.39
2022-11-05T06:27:38.005Z,89.29
2022-11-05T06:28:38.011Z,88.57
2022-11-05T06:29:37.966Z,89.15
2022-11-05T06:30:37.952Z,88.78
2022-11-05T06:31:37.946Z,88.78
2022-11-05T06:32:37.932Z,88.98
2022-11-05T06:33:37.929Z,89.39
2022-11-05T06:34:37.912Z,88.98
2022-11-05T06:35:37.904Z,88.64
2022-11-05T06:36:37.886Z,88.47
2022-11-05T06:37:37.896Z,88.43
2022-11-05T06:38:37.872Z,88.12
2022-11-05T06:39:37.858Z,88.27
2022-11-05T06:40:37.846Z,88.68
2022-11-05T06:41:56.948Z,88.37
2022-11-05T06:42:38.831Z,88.68
2022-11-05T06:43:37.837Z,88.68
2022-11-05T06:44:37.808Z,88.57
2022-11-05T06:45:37.794Z,88.68
2022-11-05T06:46:37.782Z,88.27
2022-11-05T06:47:37.782Z,88.43
2022-11-05T06:48:37.763Z,88.57
2022-11-05T06:49:37.747Z,88.17
2022-11-05T06:50:37.739Z,88.06
2022-11-05T06:51:37.730Z,87.96
2022-11-05T06:52:41.017Z,88.68
2022-11-05T06:53:37.715Z,88.64
2022-11-05T06:54:37.699Z,88.17
2022-11-05T06:55:37.689Z,88.78
2022-11-05T06:56:37.677Z,88.06
2022-11-05T06:57:37.693Z,88.78
2022-11-05T06:58:37.662Z,88.94
2022-11-05T06:59:37.660Z,88.98
2022-11-05T07:00:37.689Z,89.09
2022-11-05T07:01:37.848Z,89.04
2022-11-05T07:02:37.621Z,89.09
2022-11-05T07:03:37.610Z,88.37
2022-11-05T07:04:37.591Z,88.37
2022-11-05T07:05:37.576Z,88.33
2022-11-05T07:06:37.567Z,88.57
2022-11-05T07:07:37.572Z,88.78
2022-11-05T07:08:37.553Z,88.06
2022-11-05T07:09:37.535Z,87.45
2022-11-05T07:10:37.526Z,88.64
2022-11-05T07:11:37.514Z,87.20
2022-11-05T07:12:37.519Z,87.96
2022-11-05T07:13:37.492Z,87.55
2022-11-05T07:14:37.490Z,87.55
2022-11-05T07:15:37.491Z,87.24
2022-11-05T07:16:37.465Z,87.45
2022-11-05T07:17:37.463Z,88.02
2022-11-05T07:18:37.441Z,87.82
2022-11-05T07:19:37.433Z,88.12
2022-11-05T07:20:37.419Z,87.92
2022-11-05T07:21:37.406Z,87.92
2022-11-05T07:22:37.410Z,87.61
2022-11-05T07:23:37.386Z,87.71
2022-11-05T07:24:37.376Z,87.61
2022-11-05T07:25:37.365Z,87.71
2022-11-05T07:26:37.357Z,87.61
2022-11-05T07:27:37.355Z,87.51
2022-11-05T07:28:37.334Z,87.41
2022-11-05T07:29:37.320Z,87.61
2022-11-05T07:30:37.323Z,87.41
2022-11-05T07:31:37.316Z,87.30
2022-11-05T07:32:37.302Z,87.26
2022-11-05T07:33:37.279Z,87.26
2022-11-05T07:34:37.270Z,87.10
2022-11-05T07:35:37.258Z,87.26
2022-11-05T07:36:37.255Z,87.06
2022-11-05T07:37:37.234Z,86.96
2022-11-05T07:38:37.252Z,87.57
2022-11-05T07:39:37.212Z,87.06
2022-11-05T07:40:37.201Z,86.85
2022-11-05T07:41:37.201Z,86.85
2022-11-05T07:42:37.181Z,86.30
2022-11-05T07:43:37.170Z,86.20
2022-11-05T07:44:37.159Z,85.96
2022-11-05T07:45:37.146Z,85.85
2022-11-05T07:46:37.153Z,85.44
2022-11-05T07:47:37.142Z,85.14
2022-11-05T07:48:37.122Z,84.79
2022-11-05T07:49:37.104Z,84.07
2022-11-05T07:50:37.093Z,83.97
2022-11-05T07:51:37.093Z,84.24
2022-11-05T07:52:37.076Z,83.73
2022-11-05T07:53:41.026Z,82.97
2022-11-05T07:54:38.053Z,82.93
2022-11-05T07:55:37.040Z,81.57
2022-11-05T07:56:37.039Z,81.32
2022-11-05T07:57:37.017Z,79.96
2022-11-05T07:58:37.006Z,79.66
2022-11-05T07:59:36.995Z,79.14
2022-11-05T08:00:37.079Z,79.25
2022-11-05T08:01:37.283Z,79.25
2022-11-05T08:02:37.320Z,78.64
2022-11-05T08:03:37.021Z,79.14
2022-11-05T08:04:36.942Z,78.43
2022-11-05T08:05:36.929Z,78.64
2022-11-05T08:06:36.937Z,78.53
2022-11-05T08:07:36.910Z,78.64
2022-11-05T08:08:36.904Z,78.12
2022-11-05T08:09:36.889Z,78.64
2022-11-05T08:10:36.877Z,78.98
2022-11-05T08:11:36.874Z,78.67
2022-11-05T08:12:36.855Z,79.08
2022-11-05T08:13:36.852Z,79.12
2022-11-05T08:14:36.837Z,79.73
2022-11-05T08:15:36.825Z,79.73
2022-11-05T08:16:36.831Z,80.24
2022-11-05T08:17:36.799Z,80.41
2022-11-05T08:18:36.790Z,80.41
2022-11-05T08:19:36.794Z,79.69
2022-11-05T08:20:36.769Z,79.28
2022-11-05T08:21:36.765Z,79.04
2022-11-05T08:22:36.748Z,79.04
2022-11-05T08:23:36.755Z,79.21
2022-11-05T08:24:36.725Z,78.16
2022-11-05T08:25:36.716Z,77.26
2022-11-05T08:26:36.712Z,76.35
2022-11-05T08:27:36.690Z,76.04
2022-11-05T08:28:36.685Z,75.64
2022-11-05T08:29:36.669Z,75.33
2022-11-05T08:30:36.665Z,75.13
2022-11-05T08:31:36.658Z,75.54
2022-11-05T08:32:36.638Z,75.64
2022-11-05T08:33:36.624Z,75.64
2022-11-05T08:34:36.615Z,75.64
2022-11-05T08:35:36.633Z,75.54
2022-11-05T08:36:36.603Z,75.78
2022-11-05T08:37:36.580Z,76.39
2022-11-05T08:38:36.574Z,76.62
2022-11-05T08:39:36.562Z,76.93
2022-11-05T08:40:36.553Z,76.83
2022-11-05T08:41:36.569Z,76.97
2022-11-05T08:42:36.530Z,76.66
2022-11-05T08:43:44.212Z,76.87
2022-11-05T08:44:36.513Z,77.37
2022-11-05T08:45:38.075Z,78.23
2022-11-05T08:46:41.384Z,77.98
2022-11-05T08:47:37.472Z,77.68
2022-11-05T08:48:36.463Z,77.95
2022-11-05T08:49:36.456Z,77.03
2022-11-05T08:50:36.443Z,76.59
2022-11-05T08:51:36.461Z,76.59
2022-11-05T08:52:36.422Z,76.25
2022-11-05T08:53:36.409Z,75.30
2022-11-05T08:54:36.398Z,75.16
2022-11-05T08:55:36.386Z,74.11
2022-11-05T08:56:36.391Z,73.36
2022-11-05T08:57:36.364Z,72.72
2022-11-05T08:58:36.356Z,72.31
2022-11-05T08:59:36.356Z,71.97
2022-11-05T09:00:36.367Z,72.14
2022-11-05T09:01:36.479Z,70.39
2022-11-05T09:02:36.357Z,70.05
2022-11-05T09:03:36.300Z,69.07
2022-11-05T09:04:36.292Z,67.85
2022-11-05T09:05:36.279Z,67.85
2022-11-05T09:06:36.285Z,67.72
2022-11-05T09:07:36.276Z,67.32
2022-11-05T09:08:36.250Z,67.22
2022-11-05T09:09:36.243Z,66.91
2022-11-05T09:10:36.256Z,66.85
2022-11-05T09:12:05.309Z,65.91
2022-11-05T09:12:37.205Z,64.43
2022-11-05T09:13:36.191Z,63.39
2022-11-05T09:14:36.182Z,62.25
2022-11-05T09:15:36.186Z,61.25
2022-11-05T09:16:36.188Z,60.15
2022-11-05T09:17:36.147Z,59.52
2022-11-05T09:18:36.140Z,58.73
2022-11-05T09:19:39.784Z,57.29
2022-11-05T09:20:36.129Z,56.06
2022-11-05T09:21:36.105Z,57.09
2022-11-05T09:22:42.068Z,56.23
2022-11-05T09:23:37.098Z,56.01
2022-11-05T09:24:36.076Z,54.27
2022-11-05T09:25:36.074Z,53.72
2022-11-05T09:26:36.061Z,53.22
2022-11-05T09:27:36.042Z,52.42
2022-11-05T09:28:36.032Z,52.72
2022-11-05T09:29:36.022Z,52.69
2022-11-05T09:30:36.028Z,52.27
2022-11-05T09:31:36.000Z,52.14
2022-11-05T09:32:35.990Z,51.25
2022-11-05T09:33:35.978Z,51.34
2022-11-05T09:34:35.972Z,51.27
2022-11-05T09:35:35.980Z,51.94
2022-11-05T09:36:35.947Z,51.64
2022-11-05T09:37:35.938Z,51.84
2022-11-05T09:38:35.928Z,51.42
2022-11-05T09:39:35.952Z,49.99
2022-11-05T09:40:35.932Z,50.29
2022-11-05T09:41:35.897Z,49.59
2022-11-05T09:42:35.889Z,49.97
2022-11-05T09:43:35.875Z,49.35
2022-11-05T09:44:35.866Z,49.49
2022-11-05T09:45:35.870Z,49.90
2022-11-05T09:46:35.853Z,49.87
2022-11-05T09:47:35.836Z,49.27
2022-11-05T09:48:35.826Z,49.05
2022-11-05T09:49:35.818Z,49.17
2022-11-05T09:50:35.822Z,49.67
2022-11-05T09:51:35.794Z,48.87
2022-11-05T09:52:35.786Z,48.87
2022-11-05T09:53:35.776Z,49.32
2022-11-05T09:54:35.766Z,50.02
2022-11-05T09:55:35.782Z,50.02
2022-11-05T09:56:35.747Z,49.62
2022-11-05T09:57:35.737Z,49.41
2022-11-05T09:58:35.726Z,50.24
2022-11-05T09:59:35.715Z,49.79
2022-11-05T10:00:35.737Z,48.99
2022-11-05T10:01:35.836Z,48.60
2022-11-05T10:02:36.000Z,48.72
2022-11-05T10:03:35.675Z,49.54
2022-11-05T10:04:35.668Z,49.82
2022-11-05T10:05:35.786Z,49.34
2022-11-05T10:06:35.649Z,49.62
2022-11-05T10:07:35.638Z,48.79
2022-11-05T10:08:35.628Z,48.49
2022-11-05T10:09:35.623Z,48.60
2022-11-05T10:10:40.574Z,47.47
2022-11-05T10:11:36.616Z,48.69
2022-11-05T10:12:35.590Z,48.92
2022-11-05T10:13:35.581Z,49.54
2022-11-05T10:14:35.570Z,49.58
2022-11-05T10:15:35.583Z,51.56
2022-11-05T10:16:35.553Z,52.51
2022-11-05T10:17:39.055Z,53.90
2022-11-05T10:18:35.542Z,56.07
2022-11-05T10:19:35.522Z,56.42
2022-11-05T10:20:35.527Z,56.42
2022-11-05T10:22:04.329Z,57.58
2022-11-05T10:22:36.499Z,57.98
2022-11-05T10:23:35.483Z,58.25
2022-11-05T10:24:35.480Z,60.12
2022-11-05T10:25:35.475Z,60.45
2022-11-05T10:26:35.451Z,62.19
2022-11-05T10:27:35.455Z,62.93
2022-11-05T10:28:35.447Z,62.23
2022-11-05T10:29:35.425Z,62.23
2022-11-05T10:30:35.423Z,62.23
2022-11-05T10:31:35.749Z,63.67
2022-11-05T10:32:35.389Z,63.81
2022-11-05T10:33:35.376Z,64.31
2022-11-05T10:34:35.366Z,64.01
2022-11-05T10:35:35.369Z,63.90
2022-11-05T10:36:35.344Z,64.41
2022-11-05T10:37:40.482Z,64.54
2022-11-05T10:38:36.324Z,64.34
2022-11-05T10:39:35.316Z,64.78
2022-11-05T10:40:35.314Z,65.11
2022-11-05T10:41:35.287Z,65.62
2022-11-05T10:42:35.295Z,66.74
2022-11-05T10:43:35.423Z,66.33
2022-11-05T10:44:35.260Z,66.86
2022-11-05T10:45:35.272Z,66.46
2022-11-05T10:46:35.242Z,66.66
2022-11-05T10:47:35.226Z,66.05
2022-11-05T10:48:39.340Z,66.69
2022-11-05T10:49:36.203Z,66.80
2022-11-05T10:50:35.209Z,66.60
2022-11-05T10:51:35.194Z,66.63
2022-11-05T10:52:35.172Z,67.13
2022-11-05T10:53:35.165Z,66.08
2022-11-05T10:54:35.155Z,66.29
2022-11-05T10:55:35.159Z,66.69
2022-11-05T10:56:35.133Z,66.52
2022-11-05T10:57:35.117Z,65.81
2022-11-05T10:58:35.113Z,66.52
2022-11-05T10:59:35.127Z,67.03
2022-11-05T11:00:35.099Z,66.90
2022-11-05T11:01:35.289Z,66.60
2022-11-05T11:02:35.121Z,66.93
2022-11-05T11:03:35.054Z,67.03
2022-11-05T11:04:38.102Z,67.54
2022-11-05T11:05:35.055Z,67.54
2022-11-05T11:06:35.022Z,67.44
2022-11-05T11:07:35.009Z,68.15
2022-11-05T11:08:35.051Z,68.25
2022-11-05T11:09:34.987Z,68.28
2022-11-05T11:10:35.012Z,68.28
2022-11-05T11:11:34.970Z,68.18
2022-11-05T11:12:40.557Z,67.54
2022-11-05T11:13:35.945Z,67.27
2022-11-05T11:14:34.946Z,67.36
2022-11-05T11:15:34.937Z,67.77
2022-11-05T11:16:34.912Z,68.08
2022-11-05T11:17:34.911Z,68.08
2022-11-05T11:18:39.886Z,66.96
2022-11-05T11:19:35.900Z,67.16
2022-11-05T11:20:34.867Z,67.36
2022-11-05T11:21:34.859Z,67.88
2022-11-05T11:22:34.848Z,67.67
2022-11-05T11:23:34.838Z,67.60
2022-11-05T11:24:34.837Z,67.50
2022-11-05T11:25:34.816Z,67.80
2022-11-05T11:26:34.803Z,68.32
2022-11-05T11:27:34.795Z,67.77
2022-11-05T11:28:34.784Z,67.67
2022-11-05T11:29:34.807Z,67.91
2022-11-05T11:30:34.760Z,68.18
2022-11-05T11:31:34.781Z,67.80
2022-11-05T11:32:34.736Z,68.21
2022-11-05T11:33:34.728Z,67.30
2022-11-05T11:34:34.735Z,66.08
2022-11-05T11:35:34.707Z,66.58
2022-11-05T11:36:34.701Z,65.88
2022-11-05T11:37:34.715Z,66.99
2022-11-05T11:38:34.672Z,66.38
2022-11-05T11:39:34.679Z,66.18
2022-11-05T11:40:34.659Z,66.99
2022-11-05T11:41:34.644Z,66.58
2022-11-05T11:42:34.630Z,66.69
2022-11-05T11:43:34.623Z,66.58
2022-11-05T11:44:34.625Z,66.69
2022-11-05T11:45:34.603Z,66.79
2022-11-05T11:46:34.588Z,66.89
2022-11-05T11:47:34.593Z,66.69
2022-11-05T11:48:34.564Z,66.89
2022-11-05T11:49:34.566Z,67.19
2022-11-05T11:50:34.543Z,67.40
2022-11-05T11:51:34.535Z,67.10
2022-11-05T11:52:34.529Z,67.19
2022-11-05T11:53:34.514Z,66.58
2022-11-05T11:54:34.539Z,66.49
2022-11-05T11:55:34.497Z,67.19
2022-11-05T11:56:34.481Z,67.10
2022-11-05T11:57:34.469Z,66.49
2022-11-05T11:58:34.459Z,66.49
2022-11-05T12:00:02.381Z,65.16
2022-11-05T12:00:35.478Z,65.80
2022-11-05T12:01:34.480Z,65.91
2022-11-05T12:02:34.453Z,65.91
2022-11-05T12:03:34.427Z,66.61
2022-11-05T12:04:34.438Z,66.82
2022-11-05T12:05:34.390Z,67.02
2022-11-05T12:06:34.371Z,66.92
2022-11-05T12:07:34.361Z,66.21
2022-11-05T12:08:34.351Z,66.21
2022-11-05T12:09:34.355Z,66.92
2022-11-05T12:10:34.329Z,66.52
2022-11-05T12:11:34.319Z,67.22
2022-11-05T12:12:34.308Z,66.52
2022-11-05T12:13:34.296Z,66.72
2022-11-05T12:14:34.298Z,66.31
2022-11-05T12:15:34.279Z,66.11
2022-11-05T12:16:34.261Z,66.82
2022-11-05T12:17:34.256Z,66.11
2022-11-05T12:18:34.240Z,66.72
2022-11-05T12:19:34.262Z,66.41
2022-11-05T12:20:34.226Z,66.31
2022-11-05T12:21:51.576Z,66.61
2022-11-05T12:22:35.202Z,67.13
2022-11-05T12:23:34.192Z,66.52
2022-11-05T12:24:34.189Z,66.21
2022-11-05T12:25:34.184Z,66.72
2022-11-05T12:26:34.153Z,66.52
2022-11-05T12:27:34.157Z,66.31
2022-11-05T12:28:36.145Z,66.00
2022-11-05T12:29:35.932Z,66.00
2022-11-05T12:30:34.109Z,66.92
2022-11-05T12:31:34.115Z,66.21
2022-11-05T12:32:34.154Z,66.00
2022-11-05T12:33:34.078Z,66.21
2022-11-05T12:34:34.080Z,66.21
2022-11-05T12:35:34.093Z,66.00
2022-11-05T12:36:34.056Z,66.61
2022-11-05T12:37:34.037Z,66.00
2022-11-05T12:38:34.025Z,66.82
2022-11-05T12:39:34.028Z,66.72
2022-11-05T12:40:34.000Z,66.31
2022-11-05T12:41:33.993Z,67.33
2022-11-05T12:42:33.981Z,67.13
2022-11-05T12:43:33.970Z,67.22
2022-11-05T12:44:33.972Z,67.53
2022-11-05T12:45:33.947Z,67.53
2022-11-05T12:46:33.936Z,67.83
2022-11-05T12:47:33.927Z,67.43
2022-11-05T12:48:37.025Z,67.13
2022-11-05T12:49:33.921Z,67.13
2022-11-05T12:50:33.892Z,67.63
2022-11-05T12:51:33.905Z,67.83
2022-11-05T12:52:33.870Z,67.63